KCVG/CVG METAR and TAF weather

Enter ICAO airport designator
Station Type Date Time Source
KCVG METAR 2020/09/25 18:52 UTC NOAA

KCVG 251852Z VRB04KT 10SM SCT035 26/14 A2998 RMK AO2 SLP144 T02560144


Station Type Date Time Source
KCVG Decoded METAR 2020/09/25 18:52 UTC NOAA

CINCINNATI/NORTHERN KY INTERNATIONAL , KY, United States (KCVG) 39-03N 084-40W 269M
Sep 25, 2020 - 02:52 PM EDT / 2020.09.25 1852 UTC
Wind: Variable at 5 MPH (4 KT):0
Visibility: 10 mile(s):0
Sky conditions: partly cloudy
Temperature: 78.1 F (25.6 C)
Dew Point: 57.9 F (14.4 C)
Relative Humidity: 49%
Pressure (altimeter): 29.98 in. Hg (1015 hPa)
ob: KCVG 251852Z VRB04KT 10SM SCT035 26/14 A2998 RMK AO2 SLP144 T02560144
cycle: 19

Station Type Date Time Source
KCVG TAF 2020/09/25 18:36 UTC NOAA

TAF KCVG 251733Z 2518/2624 15004KT P6SM SCT050 SCT080
FM260000 18003KT P6SM FEW060
FM261100 20003KT 5SM BR SCT002
FM261300 20003KT P6SM SCT015
FM261600 21007KT P6SM SCT035

Example: see airport list